Kasba-Tadla, Morocco
Current Conditions -  °F | °C
As of 9:00 AM on Wednesday 22 Oct 2014 (Local Time) from GMMB Reporting Station
Haze Haze  
Wind Chill: 68°   Ceiling: Unl
Heat Index: 68°   Visibility: 2.5mi
Dew Point: 55°   Wind: 2mph
Humidity: 64%   Direction: NA
Pressure: 30.18"   Gusts: NA
Location:  32.61°N, 6.28°W
Report Text: GMMB 220800Z VRB02KT 4000 BR FEW010 SCT200 20/13 Q1022 BECMG5000
Loading
Personal Weather Stations






























Interactive Weather Map
Tropical Storm Tracking
New forecast layout! Learn more

10-Day Weather Forecast

Advertisements
Track Severe Weather on mobile